createdAt,value
2023-05-12T00:01:34.762Z,16.88
2023-05-12T00:04:21.914Z,17.63
2023-05-12T00:07:08.509Z,17.30
2023-05-12T00:09:54.686Z,16.88
2023-05-12T00:12:40.894Z,17.58
2023-05-12T00:15:27.416Z,16.73
2023-05-12T00:18:13.795Z,17.17
2023-05-12T00:20:59.918Z,17.67
2023-05-12T00:23:48.512Z,17.15
2023-05-12T00:26:34.600Z,17.05
2023-05-12T00:29:23.481Z,17.75
2023-05-12T00:32:09.899Z,17.40
2023-05-12T00:34:57.245Z,17.90
2023-05-12T00:37:44.263Z,17.08
2023-05-12T00:40:30.683Z,16.95
2023-05-12T00:43:16.954Z,17.73
2023-05-12T00:46:05.822Z,17.65
2023-05-12T00:48:52.583Z,17.30
2023-05-12T00:51:38.892Z,16.75
2023-05-12T00:54:26.959Z,16.98
2023-05-12T00:57:13.659Z,16.58
2023-05-12T01:00:02.194Z,18.50
2023-05-12T01:02:49.006Z,17.33
2023-05-12T01:05:42.979Z,17.73
2023-05-12T01:08:31.360Z,17.17
2023-05-12T01:11:17.812Z,16.98
2023-05-12T01:14:04.529Z,16.75
2023-05-12T01:16:53.494Z,16.15
2023-05-12T01:20:19.020Z,16.23
2023-05-12T01:23:07.002Z,16.80
2023-05-12T01:25:56.566Z,16.52
2023-05-12T01:28:43.437Z,17.80
2023-05-12T01:31:30.266Z,17.52
2023-05-12T01:34:19.306Z,17.33
2023-05-12T01:37:09.723Z,18.02
2023-05-12T01:39:56.761Z,17.40
2023-05-12T01:42:43.389Z,16.83
2023-05-12T01:45:31.331Z,16.27
2023-05-12T01:48:17.491Z,17.35
2023-05-12T01:51:07.747Z,17.05
2023-05-12T01:53:54.106Z,17.23
2023-05-12T01:56:41.398Z,17.23
2023-05-12T02:02:31.897Z,17.85
2023-05-12T02:05:19.227Z,17.20
2023-05-12T02:08:08.591Z,17.85
2023-05-12T02:11:07.720Z,17.27
2023-05-12T02:13:54.998Z,17.38
2023-05-12T02:16:45.251Z,17.05
2023-05-12T02:19:31.699Z,17.63
2023-05-12T02:22:19.489Z,17.13
2023-05-12T02:25:06.603Z,17.85
2023-05-12T02:27:56.270Z,17.63
2023-05-12T02:30:50.169Z,17.27
2023-05-12T02:33:36.934Z,17.15
2023-05-12T02:36:23.513Z,17.30
2023-05-12T02:42:35.865Z,17.90
2023-05-12T02:45:22.229Z,17.75
2023-05-12T02:48:08.678Z,17.20
2023-05-12T02:50:57.690Z,17.63
2023-05-12T02:53:44.328Z,18.58
2023-05-12T02:56:33.185Z,16.65
2023-05-12T02:59:20.595Z,17.23
2023-05-12T03:02:07.824Z,17.15
2023-05-12T03:04:54.344Z,17.58
2023-05-12T03:07:40.437Z,16.63
2023-05-12T03:10:27.272Z,17.23
2023-05-12T03:13:14.349Z,16.25
2023-05-12T03:16:01.900Z,16.38
2023-05-12T03:18:49.799Z,16.50
2023-05-12T03:21:36.009Z,17.75
2023-05-12T03:24:23.248Z,16.00
2023-05-12T03:27:09.689Z,16.90
2023-05-12T03:29:56.805Z,16.63
2023-05-12T03:32:44.483Z,16.40
2023-05-12T03:35:34.672Z,16.73
2023-05-12T03:38:22.551Z,15.80
2023-05-12T03:41:08.937Z,16.95
2023-05-12T03:43:56.047Z,17.58
2023-05-12T03:46:42.901Z,17.00
2023-05-12T03:49:29.325Z,17.20
2023-05-12T03:52:16.007Z,16.67
2023-05-12T03:55:04.287Z,15.85
2023-05-12T03:57:50.719Z,16.23
2023-05-12T04:00:36.987Z,15.95
2023-05-12T04:03:26.955Z,16.75
2023-05-12T04:06:14.645Z,15.60
2023-05-12T04:09:04.064Z,16.52
2023-05-12T04:11:51.526Z,16.60
2023-05-12T04:14:43.196Z,16.55
2023-05-12T04:17:29.888Z,16.92
2023-05-12T04:20:16.242Z,16.75
2023-05-12T04:23:02.468Z,16.27
2023-05-12T04:25:49.383Z,16.52
2023-05-12T04:28:37.251Z,17.13
2023-05-12T04:31:23.577Z,16.15
2023-05-12T04:34:12.456Z,15.25
2023-05-12T04:36:58.909Z,14.43
2023-05-12T04:39:45.227Z,15.00
2023-05-12T04:42:34.186Z,15.20
2023-05-12T04:45:20.875Z,14.45
2023-05-12T04:48:07.701Z,11.63
2023-05-12T04:50:54.486Z,12.52
2023-05-12T04:53:41.539Z,13.32
2023-05-12T04:56:28.167Z,11.98
2023-05-12T04:59:16.546Z,11.43
2023-05-12T05:02:05.278Z,11.68
2023-05-12T05:04:55.404Z,11.02
2023-05-12T05:07:44.303Z,10.95
2023-05-12T05:10:31.692Z,11.07
2023-05-12T05:13:18.004Z,11.30
2023-05-12T05:16:05.419Z,11.20
2023-05-12T05:18:53.059Z,11.05
2023-05-12T05:21:39.290Z,10.48
2023-05-12T05:24:26.089Z,10.50
2023-05-12T05:27:14.149Z,10.63
2023-05-12T05:30:00.683Z,10.32
2023-05-12T05:32:47.508Z,9.73
2023-05-12T05:35:34.113Z,8.98
2023-05-12T05:38:20.474Z,9.40
2023-05-12T05:41:07.777Z,9.57
2023-05-12T05:43:54.836Z,8.32
2023-05-12T05:46:41.073Z,8.43
2023-05-12T05:49:27.175Z,8.30
2023-05-12T05:52:15.160Z,6.95
2023-05-12T05:55:01.850Z,6.55
2023-05-12T05:57:49.614Z,6.22
2023-05-12T06:00:35.820Z,5.75
2023-05-12T06:03:22.119Z,5.50
2023-05-12T06:06:08.701Z,6.15
2023-05-12T06:08:56.243Z,6.38
2023-05-12T06:11:42.704Z,5.95
2023-05-12T06:14:30.349Z,6.20
2023-05-12T06:17:16.795Z,6.15
2023-05-12T06:20:03.262Z,6.00
2023-05-12T06:22:50.180Z,5.25
2023-05-12T06:25:37.346Z,5.32
2023-05-12T06:28:23.564Z,4.90
2023-05-12T06:31:10.603Z,5.00
2023-05-12T06:33:57.093Z,4.60
2023-05-12T06:36:43.379Z,5.03
2023-05-12T06:39:29.482Z,4.80
2023-05-12T06:42:15.809Z,3.40
2023-05-12T06:45:02.228Z,3.47
2023-05-12T06:47:50.482Z,3.92
2023-05-12T06:50:37.474Z,3.65
2023-05-12T06:53:25.469Z,3.53
2023-05-12T06:56:17.039Z,3.75
2023-05-12T06:59:05.277Z,3.60
2023-05-12T07:01:52.733Z,4.07
2023-05-12T07:04:39.470Z,3.22
2023-05-12T07:07:25.856Z,3.40
2023-05-12T07:10:13.411Z,3.20
2023-05-12T07:13:00.608Z,3.60
2023-05-12T07:15:46.707Z,3.70
2023-05-12T07:18:33.462Z,3.08
2023-05-12T07:21:20.399Z,2.80
2023-05-12T07:24:06.813Z,3.15
2023-05-12T07:26:53.939Z,3.05
2023-05-12T07:29:41.045Z,2.80
2023-05-12T07:32:28.083Z,3.42
2023-05-12T07:35:14.561Z,3.20
2023-05-12T07:38:01.595Z,3.15
2023-05-12T07:40:48.651Z,2.95
2023-05-12T07:43:35.783Z,3.30
2023-05-12T07:46:22.835Z,2.70
2023-05-12T07:49:09.508Z,3.03
2023-05-12T07:51:56.660Z,2.83
2023-05-12T07:54:43.589Z,3.28
2023-05-12T07:57:30.005Z,2.78
2023-05-12T08:00:16.537Z,3.00
2023-05-12T08:03:03.719Z,3.40
2023-05-12T08:05:50.064Z,2.90
2023-05-12T08:08:36.752Z,3.25
2023-05-12T08:11:23.117Z,3.35
2023-05-12T08:14:09.087Z,3.22
2023-05-12T08:16:55.452Z,3.22
2023-05-12T08:19:42.010Z,3.58
2023-05-12T08:22:28.930Z,3.40
2023-05-12T08:25:15.846Z,3.30
2023-05-12T08:28:02.256Z,3.22
2023-05-12T08:30:48.707Z,3.20
2023-05-12T08:33:36.457Z,3.28
2023-05-12T08:36:22.810Z,3.40
2023-05-12T08:39:10.388Z,3.13
2023-05-12T08:42:03.398Z,3.00
2023-05-12T08:44:50.205Z,3.10
2023-05-12T08:47:37.833Z,3.70
2023-05-12T08:50:24.155Z,3.70
2023-05-12T08:53:14.812Z,3.42
2023-05-12T08:58:57.099Z,2.95
2023-05-12T09:01:43.813Z,2.90
2023-05-12T09:04:32.379Z,3.08
2023-05-12T09:07:24.550Z,3.10
2023-05-12T09:10:25.985Z,2.88
2023-05-12T09:13:26.563Z,2.83
2023-05-12T09:16:14.247Z,2.95
2023-05-12T09:19:03.535Z,3.00
2023-05-12T09:21:50.772Z,3.10
2023-05-12T09:24:40.620Z,3.05
2023-05-12T09:27:30.922Z,3.10
2023-05-12T09:30:17.967Z,3.00
2023-05-12T09:33:23.013Z,3.03
2023-05-12T09:36:09.473Z,3.13
2023-05-12T09:39:42.426Z,3.00
2023-05-12T09:42:30.127Z,2.95
2023-05-12T09:45:16.609Z,2.97
2023-05-12T09:48:12.973Z,2.72
2023-05-12T09:50:59.145Z,2.80
2023-05-12T09:53:47.067Z,2.75
2023-05-12T09:56:35.330Z,2.80
2023-05-12T09:59:21.788Z,3.20
2023-05-12T10:02:09.822Z,3.15
2023-05-12T10:04:59.507Z,2.80
2023-05-12T10:07:46.492Z,3.22
2023-05-12T10:10:33.656Z,3.05
2023-05-12T10:13:20.013Z,2.72
2023-05-12T10:16:06.841Z,3.00
2023-05-12T10:18:52.977Z,3.58
2023-05-12T10:21:39.891Z,3.03
2023-05-12T10:24:29.417Z,2.90
2023-05-12T10:27:17.458Z,2.95
2023-05-12T10:30:04.940Z,3.08
2023-05-12T10:32:53.135Z,2.90
2023-05-12T10:35:40.614Z,3.35
2023-05-12T10:38:27.439Z,3.13
2023-05-12T10:41:14.504Z,3.10
2023-05-12T10:44:01.101Z,3.30
2023-05-12T10:46:58.022Z,2.90
2023-05-12T10:49:44.411Z,2.97
2023-05-12T10:52:30.670Z,2.75
2023-05-12T10:55:17.867Z,3.00
2023-05-12T10:58:09.990Z,3.22
2023-05-12T11:01:05.204Z,3.03
2023-05-12T11:03:52.774Z,3.00
2023-05-12T11:06:40.960Z,3.40
2023-05-12T11:09:27.757Z,2.85
2023-05-12T11:12:15.593Z,2.88
2023-05-12T11:15:03.452Z,2.88
2023-05-12T11:17:49.851Z,3.20
2023-05-12T11:21:01.985Z,2.92
2023-05-12T11:23:51.409Z,3.20
2023-05-12T11:26:37.315Z,3.05
2023-05-12T11:29:50.941Z,3.13
2023-05-12T11:35:26.654Z,3.00
2023-05-12T11:38:17.588Z,3.08
2023-05-12T11:41:04.378Z,3.15
2023-05-12T11:43:50.670Z,3.30
2023-05-12T11:46:36.683Z,3.08
2023-05-12T11:49:22.910Z,3.42
2023-05-12T11:52:09.429Z,3.13
2023-05-12T11:55:00.846Z,2.88
2023-05-12T11:57:55.918Z,3.15
2023-05-12T12:00:42.322Z,2.80
2023-05-12T12:03:28.686Z,3.00
2023-05-12T12:06:15.257Z,2.70
2023-05-12T12:09:02.301Z,2.60
2023-05-12T12:11:48.969Z,2.97
2023-05-12T12:14:37.231Z,3.00
2023-05-12T12:17:30.943Z,2.75
2023-05-12T12:20:18.934Z,2.95
2023-05-12T12:23:05.390Z,2.72
2023-05-12T12:25:51.715Z,2.97
2023-05-12T12:28:38.167Z,3.10
2023-05-12T12:31:24.887Z,2.95
2023-05-12T12:34:11.560Z,3.30
2023-05-12T12:36:58.190Z,3.10
2023-05-12T12:39:44.377Z,3.38
2023-05-12T12:42:30.922Z,3.70
2023-05-12T12:45:19.347Z,3.80
2023-05-12T12:48:09.261Z,5.00
2023-05-12T12:50:56.155Z,5.00
2023-05-12T12:53:46.378Z,4.10
2023-05-12T12:56:32.427Z,4.18
2023-05-12T12:59:18.663Z,4.20
2023-05-12T13:02:05.027Z,3.40
2023-05-12T13:04:51.286Z,3.40
2023-05-12T13:07:37.620Z,3.10
2023-05-12T13:10:26.132Z,2.85
2023-05-12T13:13:12.482Z,2.80
2023-05-12T13:15:58.721Z,2.92
2023-05-12T13:18:45.957Z,3.03
2023-05-12T13:21:32.597Z,3.00
2023-05-12T13:24:19.284Z,2.70
2023-05-12T13:27:08.455Z,2.97
2023-05-12T13:29:54.760Z,3.40
2023-05-12T13:32:40.995Z,2.88
2023-05-12T13:35:27.020Z,2.95
2023-05-12T13:38:13.688Z,3.40
2023-05-12T13:41:00.188Z,2.80
2023-05-12T13:43:46.549Z,2.83
2023-05-12T13:46:33.232Z,2.80
2023-05-12T13:49:22.758Z,2.90
2023-05-12T13:52:09.011Z,2.67
2023-05-12T13:54:55.475Z,2.60
2023-05-12T13:57:41.585Z,3.08
2023-05-12T14:00:29.997Z,2.90
2023-05-12T14:03:16.657Z,2.90
2023-05-12T14:06:03.235Z,3.08
2023-05-12T14:08:49.483Z,3.22
2023-05-12T14:11:36.298Z,3.13
2023-05-12T14:14:22.499Z,2.65
2023-05-12T14:17:08.679Z,2.90
2023-05-12T14:19:54.884Z,2.90
2023-05-12T14:22:42.617Z,3.28
2023-05-12T14:25:30.824Z,2.90
2023-05-12T14:28:17.497Z,2.90
2023-05-12T14:31:04.328Z,3.20
2023-05-12T14:33:50.484Z,3.00
2023-05-12T14:36:37.760Z,3.30
2023-05-12T14:39:23.834Z,3.42
2023-05-12T14:42:32.460Z,3.22
2023-05-12T14:45:19.509Z,3.45
2023-05-12T14:48:08.947Z,3.00
2023-05-12T14:50:55.995Z,3.33
2023-05-12T14:53:42.548Z,2.88
2023-05-12T14:56:28.939Z,3.05
2023-05-12T14:59:15.259Z,2.90
2023-05-12T15:02:01.378Z,3.10
2023-05-12T15:04:47.518Z,3.10
2023-05-12T15:07:34.233Z,3.40
2023-05-12T15:10:20.749Z,3.00
2023-05-12T15:13:07.218Z,3.20
2023-05-12T15:15:55.357Z,2.85
2023-05-12T15:18:43.123Z,2.90
2023-05-12T15:21:29.508Z,2.90
2023-05-12T15:24:15.804Z,3.08
2023-05-12T15:27:02.445Z,2.83
2023-05-12T15:29:48.460Z,2.90
2023-05-12T15:32:34.716Z,3.15
2023-05-12T15:35:21.763Z,3.15
2023-05-12T15:38:08.421Z,3.20
2023-05-12T15:40:56.167Z,3.53
2023-05-12T15:43:42.573Z,3.20
2023-05-12T15:46:28.804Z,3.08
2023-05-12T15:49:15.568Z,3.22
2023-05-12T15:52:02.626Z,2.97
2023-05-12T15:54:49.155Z,3.45
2023-05-12T15:57:35.524Z,3.03
2023-05-12T16:00:22.741Z,3.13
2023-05-12T16:03:09.327Z,3.40
2023-05-12T16:05:55.998Z,3.45
2023-05-12T16:08:42.465Z,3.50
2023-05-12T16:11:29.812Z,3.90
2023-05-12T16:14:16.202Z,4.28
2023-05-12T16:17:02.947Z,3.83
2023-05-12T16:19:51.071Z,3.65
2023-05-12T16:22:37.832Z,3.88
2023-05-12T16:25:24.013Z,4.07
2023-05-12T16:28:10.232Z,3.80
2023-05-12T16:30:56.742Z,3.72
2023-05-12T16:33:43.033Z,3.55
2023-05-12T16:36:30.017Z,3.80
2023-05-12T16:39:16.224Z,3.65
2023-05-12T16:42:02.478Z,3.83
2023-05-12T16:44:48.685Z,3.40
2023-05-12T16:47:35.508Z,3.22
2023-05-12T16:50:22.568Z,3.65
2023-05-12T16:53:09.098Z,3.97
2023-05-12T16:55:56.037Z,3.60
2023-05-12T16:58:42.571Z,3.67
2023-05-12T17:01:32.020Z,3.78
2023-05-12T17:04:18.101Z,4.00
2023-05-12T17:07:04.260Z,4.03
2023-05-12T17:09:50.646Z,5.10
2023-05-12T17:12:37.796Z,4.45
2023-05-12T17:15:27.454Z,5.78
2023-05-12T17:21:04.526Z,6.60
2023-05-12T17:23:50.757Z,7.28
2023-05-12T17:26:38.008Z,7.40
2023-05-12T17:29:24.494Z,6.80
2023-05-12T17:32:10.933Z,6.28
2023-05-12T17:34:58.463Z,6.40
2023-05-12T17:37:44.806Z,6.07
2023-05-12T17:40:32.235Z,4.70
2023-05-12T17:43:18.928Z,5.45
2023-05-12T17:46:05.491Z,5.75
2023-05-12T17:48:52.016Z,8.05
2023-05-12T17:51:39.860Z,7.70
2023-05-12T17:54:26.279Z,6.15
2023-05-12T17:57:13.416Z,6.80
2023-05-12T18:00:00.401Z,6.20
2023-05-12T18:02:47.062Z,6.60
2023-05-12T18:05:35.511Z,6.72
2023-05-12T18:08:22.765Z,6.55
2023-05-12T18:11:08.962Z,4.15
2023-05-12T18:13:55.654Z,4.68
2023-05-12T18:16:42.557Z,4.38
2023-05-12T18:19:28.815Z,3.78
2023-05-12T18:22:20.194Z,3.97
2023-05-12T18:25:06.788Z,3.53
2023-05-12T18:27:53.551Z,3.40
2023-05-12T18:31:09.260Z,3.00
2023-05-12T18:34:01.299Z,3.17
2023-05-12T18:36:47.525Z,3.85
2023-05-12T18:39:34.399Z,3.22
2023-05-12T18:42:24.063Z,3.38
2023-05-12T18:45:18.655Z,3.40
2023-05-12T18:48:05.130Z,3.42
2023-05-12T18:50:51.960Z,3.35
2023-05-12T18:53:38.342Z,4.07
2023-05-12T18:56:25.362Z,3.47
2023-05-12T18:59:12.527Z,3.00
2023-05-12T19:02:00.129Z,2.90
2023-05-12T19:04:47.144Z,3.35
2023-05-12T19:07:43.620Z,3.13
2023-05-12T19:10:46.511Z,3.03
2023-05-12T19:13:33.251Z,3.22
2023-05-12T19:16:20.319Z,3.47
2023-05-12T19:19:08.100Z,3.33
2023-05-12T19:21:54.424Z,3.40
2023-05-12T19:24:42.047Z,3.28
2023-05-12T19:27:29.330Z,3.35
2023-05-12T19:30:16.309Z,3.67
2023-05-12T19:33:29.709Z,3.63
2023-05-12T19:36:38.120Z,3.80
2023-05-12T19:39:26.906Z,3.88
2023-05-12T19:45:45.464Z,3.88
2023-05-12T19:48:32.368Z,4.07
2023-05-12T19:51:22.116Z,4.00
2023-05-12T19:57:52.983Z,4.18
2023-05-12T20:01:01.744Z,3.60
2023-05-12T20:03:48.515Z,3.97
2023-05-12T20:06:34.932Z,3.78
2023-05-12T20:09:23.307Z,3.80
2023-05-12T20:12:10.158Z,3.83
2023-05-12T20:14:57.245Z,3.80
2023-05-12T20:17:43.652Z,3.90
2023-05-12T20:20:30.591Z,3.75
2023-05-12T20:23:17.580Z,3.90
2023-05-12T20:26:04.990Z,4.40
2023-05-12T20:28:51.652Z,3.97
2023-05-12T20:31:38.865Z,4.20
2023-05-12T20:34:25.811Z,4.03
2023-05-12T20:37:12.868Z,4.28
2023-05-12T20:39:59.167Z,4.43
2023-05-12T20:46:14.313Z,4.13
2023-05-12T20:49:01.027Z,4.50
2023-05-12T20:51:47.276Z,4.57
2023-05-12T20:54:33.603Z,4.63
2023-05-12T20:57:19.659Z,4.20
2023-05-12T21:00:07.671Z,4.28
2023-05-12T21:02:54.692Z,4.43
2023-05-12T21:05:42.729Z,4.30
2023-05-12T21:08:29.118Z,4.03
2023-05-12T21:11:16.345Z,5.20
2023-05-12T21:14:02.895Z,4.75
2023-05-12T21:16:49.382Z,4.78
2023-05-12T21:19:36.159Z,4.40
2023-05-12T21:22:22.261Z,4.00
2023-05-12T21:25:08.878Z,4.55
2023-05-12T21:27:55.666Z,4.60
2023-05-12T21:30:41.994Z,5.15
2023-05-12T21:33:28.474Z,4.45
2023-05-12T21:36:14.928Z,4.28
2023-05-12T21:39:01.436Z,4.95
2023-05-12T21:41:47.939Z,4.63
2023-05-12T21:44:34.741Z,4.65
2023-05-12T21:47:21.117Z,4.22
2023-05-12T21:50:07.642Z,4.60
2023-05-12T21:52:54.677Z,4.30
2023-05-12T21:55:42.011Z,4.85
2023-05-12T21:58:28.637Z,5.05
2023-05-12T22:01:15.811Z,4.28
2023-05-12T22:04:02.044Z,4.85
2023-05-12T22:06:48.913Z,4.45
2023-05-12T22:09:35.298Z,4.70
2023-05-12T22:12:22.100Z,4.53
2023-05-12T22:15:09.626Z,5.03
2023-05-12T22:17:55.906Z,4.75
2023-05-12T22:20:41.861Z,4.70
2023-05-12T22:23:28.205Z,5.20
2023-05-12T22:26:14.394Z,5.00
2023-05-12T22:29:01.978Z,4.95
2023-05-12T22:31:48.261Z,5.22
2023-05-12T22:34:34.576Z,5.05
2023-05-12T22:37:21.277Z,5.53
2023-05-12T22:40:08.090Z,5.35
2023-05-12T22:42:54.374Z,5.38
2023-05-12T22:45:40.759Z,5.38
2023-05-12T22:48:27.275Z,5.63
2023-05-12T22:51:14.026Z,5.28
2023-05-12T22:54:00.633Z,5.47
2023-05-12T22:56:47.167Z,5.05
2023-05-12T22:59:34.007Z,5.57
2023-05-12T23:02:20.246Z,5.55
2023-05-12T23:05:06.586Z,5.97
2023-05-12T23:07:53.263Z,5.60
2023-05-12T23:10:42.247Z,6.03
2023-05-12T23:13:30.012Z,5.95
2023-05-12T23:16:16.471Z,6.38
2023-05-12T23:19:02.762Z,6.13
2023-05-12T23:21:48.988Z,6.30
2023-05-12T23:24:36.771Z,6.30
2023-05-12T23:27:23.245Z,6.38
2023-05-12T23:30:09.893Z,6.68
2023-05-12T23:32:56.238Z,6.43
2023-05-12T23:35:44.588Z,6.82
2023-05-12T23:38:31.240Z,6.53
2023-05-12T23:41:17.501Z,6.38
2023-05-12T23:44:03.625Z,6.95
2023-05-12T23:46:49.712Z,6.63
2023-05-12T23:49:36.618Z,7.18
2023-05-12T23:52:22.976Z,7.25
2023-05-12T23:55:09.462Z,6.93
2023-05-12T23:57:56.334Z,7.20
